• Join FlightAware (Why Join?)
  • Login
  • US Flag 
10:17AM EDT


 

Airport Tracker/Info


-or-


 

Live Flight TrackerFlight Track Log ✈ BER3440 ✈ 29-Jul-2013 ✈ EDDT / TXL - LEIB / IBZ

Flight Track Log - Related Links

Times and Time Zones

All times are in EDT time to prevent confusion due to time zone crossing. See the BER3440 flight status page for this flight to view local times or setup timezone preferences in your user account.

Time Position Orientation Groundspeed Altitude Reporting Facility
EDT Latitude Longitude Course Direction KTS MPH feet Rate Location/Type
04:59AM 52.5600 13.2980 270° West 105 121  Level FlightAware
05:02AM 52.5440 13.1300 261° West 254 292 3,600 1,980 Climbing FlightAware
05:02AM 52.5400 13.0850 262° West 252 290 5,100 4,860 Climbing FlightAware
05:02AM 52.5330 13.0530 250° West 255 293 6,200 4,740 Climbing FlightAware
05:02AM 52.5130 13.0190 226° Southwest 262 302 7,400 3,420 Climbing FlightAware
05:03AM 52.4870 12.9830 220° Southwest 274 315 8,800 3,120 Climbing FlightAware
05:04AM 52.4460 12.9240 221° Southwest 279 321 11,100 3,180 Climbing FlightAware
05:04AM 52.4070 12.8690 221° Southwest 287 330 13,100 2,340 Climbing FlightAware
05:05AM 52.3580 12.7980 222° Southwest 328 377 14,500 1,500 Climbing FlightAware
05:06AM 52.3190 12.7410 222° Southwest 367 422 15,100 2,040 Climbing FlightAware
05:06AM 52.2680 12.6650 222° Southwest 371 427 17,000 2,820 Climbing FlightAware
05:07AM 52.2100 12.5820 221° Southwest 370 426 19,200 2,760 Climbing FlightAware
05:08AM 52.1650 12.5170 222° Southwest 373 429 20,700 2,400 Climbing FlightAware
05:08AM 52.1130 12.4430 221° Southwest 376 433 22,300 2,220 Climbing FlightAware
05:09AM 52.0370 12.3360 221° Southwest 378 435 24,400 2,040 Climbing FlightAware
05:10AM 51.9910 12.2700 221° Southwest 383 441 25,400 2,340 Climbing FlightAware
05:10AM 51.9320 12.1870 221° Southwest 364 419 27,500 2,460 Climbing FlightAware
05:11AM 51.8820 12.1170 221° Southwest 353 406 29,000 1,620 Climbing FlightAware
05:12AM 51.8310 12.0460 221° Southwest 367 422 29,700 1,080 Climbing FlightAware
05:12AM 51.7790 11.9720 221° Southwest 377 434 30,500 1,020 Climbing FlightAware
05:13AM 51.7210 11.8910 221° Southwest 386 444 31,200 1,020 Climbing FlightAware
05:14AM 51.6600 11.8070 221° Southwest 396 456 32,000 1,020 Climbing FlightAware
05:15AM 51.6090 11.7370 220° Southwest 402 463 32,600 1,080 Climbing FlightAware
05:15AM 51.5520 11.6580 221° Southwest 405 466 33,400 1,140 Climbing FlightAware
05:16AM 51.4910 11.5750 220° Southwest 401 461 34,200 1,020 Climbing FlightAware
05:17AM 51.4330 11.4960 220° Southwest 400 460 34,900 1,020 Climbing FlightAware
05:17AM 51.3640 11.4350 209° Southwest 392 451 35,700 1,020 Climbing FlightAware
05:18AM 51.2930 11.4100 192° South 392 451 36,400 960 Climbing FlightAware
05:19AM 51.2170 11.3830 193° South 389 448 37,100 1,020 Climbing FlightAware
05:19AM 51.1610 11.3630 193° South 386 444 37,700 780 Climbing FlightAware
05:20AM 51.0840 11.3360 192° South 390 449 38,100 180 Climbing FlightAware
05:21AM 51.0130 11.3110 192° South 394 453 38,000 -120 Descending FlightAware
05:21AM 50.9500 11.2890 192° South 394 453 38,000  Level FlightAware
05:22AM 50.8720 11.2630 192° South 395 455 38,000  Level FlightAware
05:23AM 50.7990 11.2380 192° South 394 453 38,000  Level FlightAware
05:23AM 50.7230 11.2120 192° South 396 456 38,000  Level FlightAware
05:24AM 50.6520 11.1870 193° South 397 457 38,000  Level FlightAware
05:25AM 50.5720 11.1590 193° South 400 460 38,000  Level FlightAware
05:25AM 50.5000 11.1270 196° South 400 460 38,000  Level FlightAware
05:26AM 50.4370 11.0670 211° Southwest 396 456 38,000  Level FlightAware
05:27AM 50.3800 11.0080 213° Southwest 393 452 38,000  Level FlightAware
05:27AM 50.3160 10.9410 214° Southwest 392 451 38,000  Level FlightAware
05:28AM 50.2590 10.8830 213° Southwest 390 449 38,000  Level FlightAware
05:29AM 50.2120 10.8340 214° Southwest 390 449 38,000  Level FlightAware
05:29AM 50.1380 10.7580 213° Southwest 390 449 38,000  Level FlightAware
05:30AM 50.0790 10.6970 214° Southwest 393 452 38,000  Level FlightAware
05:31AM 50.0120 10.6290 213° Southwest 400 460 38,000  Level FlightAware
05:32AM 49.9440 10.5600 213° Southwest 405 466 38,000  Level FlightAware
05:32AM 49.8850 10.4990 214° Southwest 407 468 38,000  Level FlightAware
05:33AM 49.8140 10.4280 213° Southwest 403 464 38,000  Level FlightAware
05:34AM 49.7500 10.3630 213° Southwest 405 466 38,000  Level FlightAware
05:34AM 49.6900 10.3030 213° Southwest 406 467 38,000  Level FlightAware
05:35AM 49.6240 10.2360 213° Southwest 404 465 38,000  Level FlightAware
05:36AM 49.5550 10.1680 213° Southwest 405 466 38,000  Level FlightAware
05:36AM 49.4740 10.0870 213° Southwest 413 475 38,000  Level FlightAware
05:37AM 49.4150 10.0290 213° Southwest 414 476 38,000  Level FlightAware
05:38AM 49.3450 9.9600 213° Southwest 415 478 38,000  Level FlightAware
05:39AM 49.2730 9.8880 213° Southwest 416 479 38,000 120 Level FlightAware
05:40AM 49.1600 9.7780 212° Southwest 414 476 38,300 480 Climbing FlightAware
05:40AM 49.0930 9.7130 212° Southwest 410 472 38,900 480 Climbing FlightAware
05:41AM 49.0260 9.6470 213° Southwest 416 479 39,000 60 Climbing FlightAware
05:42AM 48.9540 9.5770 213° Southwest 419 482 39,000  Level FlightAware
05:42AM 48.8900 9.5160 212° Southwest 420 483 39,000  Level FlightAware
05:43AM 48.8160 9.4440 213° Southwest 420 483 39,000  Level FlightAware
05:44AM 48.7500 9.3810 212° Southwest 413 475 39,000  Level FlightAware
05:45AM 48.6880 9.3210 213° Southwest 405 466 39,000  Level FlightAware
05:45AM 48.6180 9.2490 214° Southwest 403 464 39,000  Level FlightAware
05:46AM 48.5660 9.1500 232° Southwest 404 465 39,000  Level FlightAware
05:47AM 48.5180 9.0700 228° Southwest 404 465 39,000  Level FlightAware
05:47AM 48.4730 9.0150 219° Southwest 407 468 39,000  Level FlightAware
05:48AM 48.4080 8.9350 219° Southwest 407 468 39,000  Level FlightAware
05:49AM 48.3420 8.8550 219° Southwest 406 467 39,000  Level FlightAware
05:49AM 48.2910 8.7930 219° Southwest 407 468 39,000  Level FlightAware
05:50AM 48.2340 8.7240 219° Southwest 405 466 39,000  Level FlightAware
05:51AM 48.1690 8.6450 219° Southwest 402 463 39,000  Level FlightAware
05:51AM 48.1280 8.5950 219° Southwest 394 453 39,000  Level FlightAware
05:52AM 48.0660 8.5220 218° Southwest 390 449 39,000  Level FlightAware
05:53AM 48.0100 8.4530 220° Southwest 385 443 39,000  Level FlightAware
05:53AM 47.9570 8.3910 218° Southwest 382 440 39,000  Level FlightAware
05:54AM 47.8900 8.3110 219° Southwest 378 435 39,000  Level FlightAware
05:55AM 47.8280 8.2370 219° Southwest 378 435 39,000  Level FlightAware
05:55AM 47.7710 8.1710 218° Southwest 377 434 39,000  Level FlightAware
05:56AM 47.7090 8.0970 219° Southwest 377 434 39,000  Level FlightAware
05:57AM 47.6610 8.0400 219° Southwest 376 433 39,000  Level FlightAware
05:58AM 47.5980 7.9670 218° Southwest 375 432 39,000  Level FlightAware
05:58AM 47.5430 7.9020 219° Southwest 375 432 39,000  Level FlightAware
05:59AM 47.4810 7.8290 219° Southwest 376 433 39,000  Level FlightAware
06:00AM 47.4160 7.7540 218° Southwest 377 434 39,000  Level FlightAware
06:00AM 47.3680 7.6990 218° Southwest 377 434 39,000  Level FlightAware
06:01AM 47.3030 7.6330 215° Southwest 383 441 39,000  Level FlightAware
06:02AM 47.2440 7.5780 212° Southwest 385 443 39,000  Level FlightAware
06:02AM 47.1780 7.5150 213° Southwest 385 443 39,000  Level FlightAware
06:03AM 47.1050 7.4450 213° Southwest 392 451 39,000  Level FlightAware
06:04AM 47.0440 7.3870 213° Southwest 392 451 39,000  Level FlightAware
06:05AM 46.9740 7.3210 213° Southwest 392 451 39,000  Level FlightAware
06:05AM 46.9140 7.2650 213° Southwest 393 452 39,000  Level FlightAware
06:06AM 46.8450 7.2000 213° Southwest 394 453 39,000  Level FlightAware
06:07AM 46.7840 7.1420 213° Southwest 394 453 39,000  Level FlightAware
06:07AM 46.7230 7.0860 212° Southwest 397 457 39,000  Level FlightAware
06:08AM 46.6540 7.0210 213° Southwest 401 461 39,000  Level FlightAware
06:09AM 46.5840 6.9570 212° Southwest 404 465 39,000  Level FlightAware
06:09AM 46.5240 6.9000 213° Southwest 408 470 39,000  Level FlightAware
06:10AM 46.4500 6.8320 212° Southwest 411 473 39,000  Level FlightAware
06:11AM 46.3890 6.7760 212° Southwest 411 473 39,000  Level FlightAware
06:12AM 46.3190 6.7110 213° Southwest 412 474 39,000  Level FlightAware
06:12AM 46.2590 6.6560 212° Southwest 414 476 39,000  Level FlightAware
06:13AM 46.1800 6.5840 212° Southwest 417 480 39,000  Level FlightAware
06:14AM 46.1140 6.5240 212° Southwest 419 482 39,000  Level FlightAware
06:14AM 46.0560 6.4710 212° Southwest 421 484 39,000  Level FlightAware
06:15AM 45.9870 6.4090 212° Southwest 424 488 39,000  Level FlightAware
06:16AM 45.9130 6.3670 202° Southwest 426 490 39,000  Level FlightAware
06:16AM 45.8370 6.3290 199° South 429 494 39,000  Level FlightAware
06:17AM 45.7540 6.2870 199° South 430 495 39,000  Level FlightAware
06:18AM 45.6820 6.2510 199° South 427 491 39,000  Level FlightAware
06:19AM 45.5960 6.2080 199° South 425 489 39,000  Level FlightAware
06:19AM 45.5270 6.1730 200° South 425 489 39,000  Level FlightAware
06:19AM 45.4880 6.1550 198° South 426 490 39,000  Level FlightAware
06:20AM 45.4040 6.1130 199° South 426 490 39,000  Level FlightAware
06:21AM 45.2950 6.0580 200° South 427 491 39,000  Level FlightAware
06:22AM 45.2130 6.0180 199° South 428 493 39,000  Level FlightAware
06:23AM 45.1430 5.9810 200° South 429 494 39,000  Level FlightAware
06:24AM 45.0020 5.9060 201° Southwest 431 496 39,000  Level FlightAware
06:24AM 44.9270 5.8650 201° Southwest 430 495 39,000  Level FlightAware
06:25AM 44.8440 5.8220 200° South 430 495 39,000  Level FlightAware
06:26AM 44.7760 5.7860 201° Southwest 429 494 39,000  Level FlightAware
06:27AM 44.6880 5.7400 200° South 430 495 39,000  Level FlightAware
06:27AM 44.6130 5.7000 201° Southwest 430 495 39,000  Level FlightAware
06:28AM 44.5310 5.6570 200° South 430 495 39,000  Level FlightAware
06:29AM 44.4550 5.6180 200° South 430 495 39,000  Level FlightAware
06:29AM 44.3880 5.5830 200° South 430 495 39,000  Level FlightAware
06:30AM 44.3150 5.5450 200° South 430 495 39,000  Level FlightAware
06:31AM 44.2310 5.5020 200° South 430 495 39,000  Level FlightAware
06:31AM 44.1560 5.4630 200° South 432 497 39,000  Level FlightAware
06:32AM 44.0810 5.4250 200° South 435 501 39,000  Level FlightAware
06:33AM 43.9990 5.3830 200° South 432 497 39,000  Level FlightAware
06:33AM 43.9290 5.3460 201° Southwest 431 496 39,000  Level FlightAware
06:34AM 43.8510 5.3070 200° South 429 494 39,000  Level FlightAware
06:35AM 43.7810 5.2710 200° South 426 490 39,000  Level FlightAware
06:35AM 43.7080 5.2190 207° Southwest 422 486 39,000  Level FlightAware
06:36AM 43.6400 5.1670 209° Southwest 422 486 39,000  Level FlightAware
06:37AM 43.5670 5.1130 208° Southwest 422 486 39,000  Level FlightAware
06:37AM 43.4960 5.0600 208° Southwest 421 484 39,000  Level FlightAware
06:38AM 43.4310 5.0110 209° Southwest 420 483 39,000  Level FlightAware
06:39AM 43.3570 4.9570 208° Southwest 419 482 39,000  Level FlightAware
06:40AM 43.2770 4.8980 208° Southwest 422 486 39,000  Level FlightAware
06:40AM 43.2070 4.8460 208° Southwest 427 491 39,000  Level FlightAware
06:41AM 43.1430 4.8000 208° Southwest 431 496 39,000  Level FlightAware
06:42AM 43.0600 4.7390 208° Southwest 430 495 39,000  Level FlightAware
06:42AM 42.9880 4.6860 208° Southwest 430 495 39,000  Level FlightAware
06:43AM 42.9130 4.6310 208° Southwest 429 494 39,000  Level FlightAware
06:44AM 42.8470 4.5840 208° Southwest 426 490 39,000  Level FlightAware
06:44AM 42.7760 4.5330 208° Southwest 424 488 39,000  Level FlightAware
06:45AM 42.6960 4.4760 208° Southwest 420 483 39,000  Level FlightAware
06:46AM 42.6260 4.4250 208° Southwest 417 480 39,000  Level FlightAware
06:47AM 42.4810 4.3220 208° Southwest 414 476 39,000  Level FlightAware
06:48AM 42.3990 4.2630 208° Southwest 412 474 39,000  Level FlightAware
06:49AM 42.2960 4.1900 208° Southwest 408 470 39,000  Level FlightAware
06:51AM 42.1060 4.1120 196° South 420 483 39,000  Level FlightAware
06:52AM 42.0070 4.0740 196° South 422 486 39,000  Level FlightAware
06:52AM 41.9290 4.0440 196° South 417 480 39,000  Level FlightAware
06:53AM 41.8520 4.0140 196° South 416 479 39,000  Level FlightAware
06:54AM 41.7640 3.9800 196° South 421 484 39,000  Level FlightAware
06:54AM 41.6880 3.9510 196° South 424 488 39,000  Level FlightAware
06:55AM 41.6120 3.9220 196° South 426 490 39,000  Level FlightAware
06:56AM 41.5360 3.8930 196° South 426 490 39,000  Level FlightAware
06:56AM 41.4840 3.8730 196° South 427 491 39,000  Level FlightAware
06:57AM 41.4150 3.8470 196° South 426 490 39,000  Level FlightAware
06:58AM 41.3240 3.8130 196° South 425 489 39,000  Level FlightAware
06:58AM 41.2480 3.7840 196° South 426 490 39,000  Level FlightAware
06:59AM 41.1700 3.7650 190° South 436 502 39,000 -120 Level FlightAware
06:59AM 41.1190 3.7570 187° South 428 493 38,900 -720 Descending FlightAware
07:00AM 41.0240 3.7420 187° South 423 487 38,100 -1,320 Descending FlightAware
07:01AM 40.9220 3.7240 188° South 429 494 36,700 -1,740 Descending FlightAware
07:02AM 40.8430 3.7010 192° South 433 498 35,600 -1,020 Descending FlightAware
07:03AM 40.7540 3.6340 210° Southwest 430 495 35,000 -360 Descending FlightAware
07:04AM 40.6540 3.5570 210° Southwest 430 495 35,000  Level FlightAware
07:04AM 40.5850 3.5040 210° Southwest 431 496 35,000  Level FlightAware
07:05AM 40.5080 3.4450 210° Southwest 430 495 35,000  Level FlightAware
07:05AM 40.4620 3.4090 211° Southwest 430 495 35,000  Level FlightAware
07:06AM 40.3930 3.3650 206° Southwest 437 503 35,000  Level FlightAware
07:07AM 40.3110 3.3210 202° Southwest 439 505 35,000  Level FlightAware
07:08AM 40.2270 3.2750 203° Southwest 439 505 35,000  Level FlightAware
07:08AM 40.1570 3.2380 202° Southwest 437 503 35,000  Level FlightAware
07:09AM 40.0690 3.1910 202° Southwest 436 502 35,000 -120 Level FlightAware
07:10AM 39.9890 3.1480 202° Southwest 434 499 34,900 -600 Descending FlightAware
07:10AM 39.9160 3.1080 203° Southwest 433 498 34,200 -1,620 Descending FlightAware
07:11AM 39.8460 3.0580 209° Southwest 427 491 32,800 -2,280 Descending FlightAware
07:12AM 39.7450 2.9850 209° Southwest 410 472 30,500 -2,280 Descending FlightAware
07:13AM 39.6770 2.9370 209° Southwest 408 470 29,000 -2,280 Descending FlightAware
07:13AM 39.6210 2.8970 209° Southwest 401 461 27,700 -2,280 Descending FlightAware
07:14AM 39.5560 2.8490 210° Southwest 385 443 26,200 -2,160 Descending FlightAware
07:15AM 39.4920 2.8030 209° Southwest 384 442 24,800 -2,100 Descending FlightAware
07:15AM 39.4250 2.7470 213° Southwest 362 417 23,200 -2,160 Descending FlightAware
07:16AM 39.3940 2.6690 243° Southwest 346 398 21,700 -2,100 Descending FlightAware
07:17AM 39.3710 2.6000 247° West 342 394 20,400 -1,860 Descending FlightAware
07:17AM 39.3480 2.5330 246° West 336 387 19,200 -2,160 Descending FlightAware
07:18AM 39.3160 2.4380 246° West 327 376 17,400 -2,520 Descending FlightAware
07:19AM 39.2860 2.3590 244° Southwest 327 376 15,500 -2,040 Descending FlightAware
07:20AM 39.2480 2.2700 241° Southwest 334 384 14,000 -2,340 Descending FlightAware
07:20AM 39.2170 2.1990 241° Southwest 322 371 12,000 -2,520 Descending FlightAware
07:21AM 39.1850 2.1240 241° Southwest 312 359 10,600 -1,380 Descending FlightAware
07:22AM 39.1580 2.0630 240° Southwest 268 308 10,000 -1,380 Descending FlightAware
07:23AM 39.1350 2.0070 242° Southwest 274 315 8,600 -1,680 Descending FlightAware
07:23AM 39.1130 1.9570 240° Southwest 261 300 7,900 -1,320 Descending FlightAware
07:24AM 39.0830 1.8870 241° Southwest 251 289 6,800 -1,320 Descending FlightAware
07:24AM 39.0740 1.8650 242° Southwest 252 290 6,400 -1,260 Descending FlightAware
07:25AM 39.0590 1.8330 239° Southwest 248 285 6,000 -1,020 Descending FlightAware
07:25AM 39.0420 1.7980 238° Southwest 241 277 5,500 -1,320 Descending FlightAware
07:26AM 39.0160 1.7430 239° Southwest 240 276 4,400 -1,380 Descending FlightAware
07:26AM 39.0050 1.7140 244° Southwest 238 274 4,000 -960 Descending FlightAware
07:27AM 38.9890 1.6720 244° Southwest 229 264 3,500 -660 Descending FlightAware
07:28AM 38.9690 1.6240 242° Southwest 197 227 3,200 -480 Descending FlightAware
07:28AM 38.9580 1.5960 243° Southwest 191 220 3,000 -480 Descending FlightAware
07:28AM 38.9480 1.5710 243° Southwest 182 209 2,800 -600 Descending FlightAware
07:29AM 38.9380 1.5470 242° Southwest 178 205 2,500 -900 Descending FlightAware
07:30AM 38.9210 1.5030 244° Southwest 180 207 1,700 -1,080 Descending FlightAware
07:32AM 38.8729 1.3731 245° Southwest  Level Estimated
07:33AM 38.8729 1.3731 229° Southwest  Level Estimated
07:34AM 38.8729 1.3731 229° Southwest  Level Estimated
07:35AM 38.8729 1.3731 229° Southwest  Level Estimated